Clear Creek, Texas
Current Conditions -  °F | °C
As of 8:56 PM on Friday 21 Nov 2014 (Local Time) from KHLR Reporting Station
Light Rain Light Rain  
Wind Chill: 68°   Ceiling: 700
Heat Index: 68°   Visibility: 10mi
Dew Point: 65°   Wind: 16mph
Humidity: 90%   Direction: 130°SE
Pressure: 30.06"   Gusts: 20mph
Location:  31.2151°N, 97.7405°W
Report Text: KHLR 220256Z AUTO 13014G17KT 10SM -RA OVC007 20/18 A3006 RMK AO2 RAE29B55 SLP205 P0015 60028 T02000183 53007 $
Loading
Personal Weather Stations






























Interactive Weather Map New forecast layout! Learn more

10-Day Weather Forecast

Advertisements
Track Severe Weather on mobile